Time,TemperatureF,DewpointF,PressureIn,WindDirection,WindDirectionDegrees,WindSpeedMPH,WindSpeedGustMPH,Humidity,HourlyPrecipIn,Conditions,Clouds,dailyrainin,SoftwareType,DateUTC
2013-12-14 00:01:00,20.6,9.6,30.29,NNE,25,0.5,3.5,62,0.00,CLR,,0.00,WeatherDisplay:10.37,2013-12-14 05:01:00,
2013-12-14 00:06:00,20.6,10.0,30.29,NNE,25,2.0,3.5,63,0.00,CLR,,0.00,WeatherDisplay:10.37,2013-12-14 05:06:00,
2013-12-14 00:11:00,20.6,10.0,30.29,NNE,26,2.9,4.6,63,0.00,CLR,,0.00,WeatherDisplay:10.37,2013-12-14 05:11:00,
2013-12-14 00:16:00,20.6,10.0,30.30,NNE,30,1.5,3.5,63,0.00,CLR,,0.00,WeatherDisplay:10.37,2013-12-14 05:16:00,
2013-12-14 00:21:00,20.5,9.2,30.30,NNE,30,4.2,10.4,61,0.00,CLR,,0.00,WeatherDisplay:10.37,2013-12-14 05:21:00,
2013-12-14 00:26:00,20.5,9.2,30.30,NNE,28,2.8,3.5,61,0.00,CLR,,0.00,WeatherDisplay:10.37,2013-12-14 05:26:00,
2013-12-14 00:31:00,20.5,9.2,30.30,NE,38,1.2,3.5,61,0.00,CLR,,0.00,WeatherDisplay:10.37,2013-12-14 05:31:00,
2013-12-14 00:36:00,20.5,9.2,30.30,NE,52,2.6,3.5,61,0.00,CLR,,0.00,WeatherDisplay:10.37,2013-12-14 05:36:00,
2013-12-14 00:41:00,20.5,9.2,30.31,NE,37,2.8,3.5,61,0.00,CLR,,0.00,WeatherDisplay:10.37,2013-12-14 05:41:00,
2013-12-14 00:46:00,20.5,9.2,30.31,NE,37,0.0,0.0,61,0.00,CLR,,0.00,WeatherDisplay:10.37,2013-12-14 05:46:00,
2013-12-14 00:51:00,20.5,9.2,30.32,NE,37,0.0,0.0,61,0.00,CLR,,0.00,WeatherDisplay:10.37,2013-12-14 05:51:00,
2013-12-14 00:56:00,20.6,9.6,30.32,North,5,0.8,4.0,62,0.00,CLR,,0.00,WeatherDisplay:10.37,2013-12-14 05:56:00,
2013-12-14 01:01:00,20.6,9.3,30.32,NNE,21,0.8,2.3,61,0.00,CLR,,0.00,WeatherDisplay:10.37,2013-12-14 06:01:00,
2013-12-14 01:06:00,20.6,8.5,30.32,NNE,21,2.3,3.5,59,0.00,CLR,,0.00,WeatherDisplay:10.37,2013-12-14 06:06:00,
2013-12-14 01:11:00,20.6,8.9,30.33,NNE,21,0.0,0.0,60,0.00,CLR,,0.00,WeatherDisplay:10.37,2013-12-14 06:11:00,
2013-12-14 01:16:00,20.6,9.3,30.32,NNE,21,0.9,3.0,61,0.00,CLR,,0.00,WeatherDisplay:10.37,2013-12-14 06:16:00,
2013-12-14 01:21:00,20.5,8.4,30.33,NE,38,1.6,3.5,59,0.00,CLR,,0.00,WeatherDisplay:10.37,2013-12-14 06:21:00,
2013-12-14 01:26:00,20.5,8.8,30.33,NNE,32,2.4,3.5,60,0.00,CLR,,0.00,WeatherDisplay:10.37,2013-12-14 06:26:00,
2013-12-14 01:31:00,20.5,8.8,30.33,NNE,30,1.7,3.5,60,0.00,CLR,,0.00,WeatherDisplay:10.37,2013-12-14 06:31:00,
2013-12-14 01:36:00,20.5,8.8,30.33,NNE,26,3.0,4.0,60,0.00,CLR,,0.00,WeatherDisplay:10.37,2013-12-14 06:36:00,
2013-12-14 01:41:00,20.5,9.2,30.33,NNE,28,2.2,3.5,61,0.00,CLR,,0.00,WeatherDisplay:10.37,2013-12-14 06:41:00,
2013-12-14 01:46:00,20.5,8.8,30.33,NNE,30,0.8,2.3,60,0.00,CLR,,0.00,WeatherDisplay:10.37,2013-12-14 06:46:00,
2013-12-14 01:52:00,20.5,9.2,30.34,NNE,30,0.0,0.0,61,0.00,CLR,,0.00,WeatherDisplay:10.37,2013-12-14 06:52:00,
2013-12-14 01:57:00,20.6,9.3,30.34,NNE,30,0.0,0.0,61,0.00,CLR,,0.00,WeatherDisplay:10.37,2013-12-14 06:57:00,
2013-12-14 02:02:00,20.6,9.3,30.34,NNE,30,1.2,2.3,61,0.00,CLR,,0.00,WeatherDisplay:10.37,2013-12-14 07:02:00,
2013-12-14 02:07:00,20.6,9.3,30.35,NNE,30,1.0,2.3,61,0.00,CLR,,0.00,WeatherDisplay:10.37,2013-12-14 07:07:00,
2013-12-14 02:12:00,20.6,9.6,30.35,NNE,30,1.4,3.0,62,0.00,CLR,,0.00,WeatherDisplay:10.37,2013-12-14 07:12:00,
2013-12-14 02:17:00,20.6,9.3,30.35,NNE,30,0.6,2.3,61,0.00,CLR,,0.00,WeatherDisplay:10.37,2013-12-14 07:17:00,
2013-12-14 02:22:00,20.6,9.6,30.35,NNE,19,3.0,4.6,62,0.00,CLR,,0.00,WeatherDisplay:10.37,2013-12-14 07:22:00,
2013-12-14 02:27:00,20.6,9.3,30.35,NNE,24,2.8,3.5,61,0.00,CLR,,0.00,WeatherDisplay:10.37,2013-12-14 07:27:00,
2013-12-14 02:32:00,20.6,9.6,30.34,NE,40,5.1,6.9,62,0.00,CLR,,0.00,WeatherDisplay:10.37,2013-12-14 07:32:00,
2013-12-14 02:37:00,20.6,10.0,30.35,NNE,26,1.5,2.3,63,0.00,CLR,,0.00,WeatherDisplay:10.37,2013-12-14 07:37:00,
2013-12-14 02:42:00,20.5,9.9,30.35,NE,49,4.2,6.9,63,0.00,CLR,,0.00,WeatherDisplay:10.37,2013-12-14 07:42:00,
2013-12-14 02:47:00,20.3,9.7,30.35,NNE,24,2.7,4.6,63,0.00,CLR,,0.00,WeatherDisplay:10.37,2013-12-14 07:47:00,
2013-12-14 02:52:00,20.3,10.1,30.35,ENE,57,3.4,4.6,64,0.00,CLR,,0.00,WeatherDisplay:10.37,2013-12-14 07:52:00,
2013-12-14 02:57:00,20.3,10.1,30.35,ENE,64,2.2,5.0,64,0.00,CLR,,0.00,WeatherDisplay:10.37,2013-12-14 07:57:00,
2013-12-14 03:02:00,20.3,10.4,30.35,NE,40,3.1,5.8,65,0.00,CLR,,0.00,WeatherDisplay:10.37,2013-12-14 08:02:00,
2013-12-14 03:07:00,20.2,10.3,30.35,NE,42,5.1,6.9,65,0.00,CLR,,0.00,WeatherDisplay:10.37,2013-12-14 08:07:00,
2013-12-14 03:12:00,20.2,10.3,30.35,NE,52,3.8,5.8,65,0.00,CLR,,0.00,WeatherDisplay:10.37,2013-12-14 08:12:00,
2013-12-14 03:17:00,20.0,10.5,30.35,ENE,59,1.1,4.6,66,0.00,CLR,,0.00,WeatherDisplay:10.37,2013-12-14 08:17:00,
2013-12-14 03:22:00,20.0,11.1,30.35,NNE,13,3.4,4.0,68,0.00,CLR,,0.00,WeatherDisplay:10.37,2013-12-14 08:22:00,
2013-12-14 03:27:00,19.9,11.4,30.36,North,355,2.0,4.6,69,0.00,CLR,,0.00,WeatherDisplay:10.37,2013-12-14 08:27:00,
2013-12-14 03:32:00,19.7,11.5,30.36,NNE,16,0.0,1.1,70,0.00,CLR,,0.00,WeatherDisplay:10.37,2013-12-14 08:32:00,
2013-12-14 03:37:00,19.7,11.8,30.37,NNE,27,2.2,3.5,71,0.00,CLR,,0.00,WeatherDisplay:10.37,2013-12-14 08:37:00,
2013-12-14 03:42:00,19.5,11.9,30.37,NNE,20,0.9,2.3,72,0.00,CLR,,0.00,WeatherDisplay:10.37,2013-12-14 08:42:00,
2013-12-14 03:47:00,19.5,12.3,30.37,NNE,20,1.0,3.5,73,0.00,CLR,,0.00,WeatherDisplay:10.37,2013-12-14 08:47:00,
2013-12-14 03:52:00,19.4,12.8,30.37,NNE,15,2.4,3.5,75,0.00,CLR,,0.00,WeatherDisplay:10.37,2013-12-14 08:52:00,
2013-12-14 03:57:00,19.2,12.9,30.37,NNE,16,2.8,6.0,76,0.00,CLR,,0.00,WeatherDisplay:10.37,2013-12-14 08:57:00,
2013-12-14 04:02:00,19.1,12.8,30.37,NNE,18,0.0,2.3,76,0.00,CLR,,0.00,WeatherDisplay:10.37,2013-12-14 09:02:00,
2013-12-14 04:07:00,19.1,13.1,30.37,NNE,18,0.5,2.3,77,0.00,CLR,,0.00,WeatherDisplay:10.37,2013-12-14 09:07:00,
2013-12-14 04:12:00,18.9,13.2,30.37,NE,36,1.4,2.3,78,0.00,CLR,,0.00,WeatherDisplay:10.37,2013-12-14 09:12:00,
2013-12-14 04:17:00,18.9,13.5,30.37,NE,36,1.5,3.5,79,0.00,CLR,,0.00,WeatherDisplay:10.37,2013-12-14 09:17:00,
2013-12-14 04:22:00,18.8,13.4,30.37,North,5,0.5,3.5,79,0.00,CLR,,0.00,WeatherDisplay:10.37,2013-12-14 09:22:00,
2013-12-14 04:27:00,18.8,13.4,30.37,NNE,18,1.6,3.5,79,0.00,CLR,,0.00,WeatherDisplay:10.37,2013-12-14 09:27:00,
2013-12-14 04:32:00,18.6,13.5,30.37,NNE,18,0.7,3.0,80,0.00,CLR,,0.00,WeatherDisplay:10.37,2013-12-14 09:32:00,
2013-12-14 04:37:00,18.6,13.7,30.37,NNE,19,2.1,3.5,81,0.00,CLR,,0.00,WeatherDisplay:10.37,2013-12-14 09:37:00,
2013-12-14 04:42:00,18.6,14.0,30.37,NNE,32,2.8,3.5,82,0.00,CLR,,0.00,WeatherDisplay:10.37,2013-12-14 09:42:00,
2013-12-14 04:47:00,18.6,14.0,30.37,NE,36,1.2,3.5,82,0.00,CLR,,0.00,WeatherDisplay:10.37,2013-12-14 09:47:00,
2013-12-14 04:52:00,18.6,14.3,30.37,North,11,0.5,2.3,83,0.00,CLR,,0.00,WeatherDisplay:10.37,2013-12-14 09:52:00,
2013-12-14 04:57:00,18.6,14.6,30.37,North,11,0.0,2.3,84,0.00,CLR,,0.00,WeatherDisplay:10.37,2013-12-14 09:57:00,
2013-12-14 05:02:00,18.6,14.6,30.37,North,11,1.2,1.2,84,0.00,CLR,,0.00,WeatherDisplay:10.37,2013-12-14 10:02:00,
2013-12-14 05:07:00,18.6,14.8,30.37,North,11,0.0,0.0,85,0.00,CLR,,0.00,WeatherDisplay:10.37,2013-12-14 10:07:00,
2013-12-14 05:12:00,18.4,14.6,30.37,North,11,0.7,2.3,85,0.00,CLR,,0.00,WeatherDisplay:10.37,2013-12-14 10:12:00,
2013-12-14 05:17:00,18.4,14.6,30.37,North,11,0.0,0.0,85,0.00,CLR,,0.00,WeatherDisplay:10.37,2013-12-14 10:17:00,
2013-12-14 05:22:00,18.4,14.9,30.37,North,11,1.9,2.3,86,0.00,CLR,,0.00,WeatherDisplay:10.37,2013-12-14 10:22:00,
2013-12-14 05:27:00,18.4,14.9,30.38,NNE,27,1.8,3.5,86,0.00,CLR,,0.00,WeatherDisplay:10.37,2013-12-14 10:27:00,
2013-12-14 05:32:00,18.4,14.9,30.38,NNE,26,1.6,3.5,86,0.00,CLR,,0.00,WeatherDisplay:10.37,2013-12-14 10:32:00,
2013-12-14 05:37:00,18.4,14.9,30.39,NNE,26,0.0,0.0,86,0.00,CLR,,0.00,WeatherDisplay:10.37,2013-12-14 10:37:00,
2013-12-14 05:42:00,18.4,15.2,30.39,NNE,26,0.0,0.0,87,0.00,CLR,,0.00,WeatherDisplay:10.37,2013-12-14 10:42:00,
2013-12-14 05:47:00,18.4,15.2,30.39,NNE,26,0.0,2.3,87,0.00,CLR,,0.00,WeatherDisplay:10.37,2013-12-14 10:47:00,
2013-12-14 05:52:00,18.6,15.4,30.39,NNE,26,0.6,1.1,87,0.00,CLR,,0.00,WeatherDisplay:10.37,2013-12-14 10:52:00,
2013-12-14 05:57:00,18.6,15.6,30.40,NNE,26,0.0,1.1,88,0.00,CLR,,0.00,WeatherDisplay:10.37,2013-12-14 10:57:00,
2013-12-14 06:02:00,18.4,15.4,30.40,NNE,26,0.0,0.0,88,0.00,CLR,,0.00,WeatherDisplay:10.37,2013-12-14 11:02:00,
2013-12-14 06:07:00,18.4,15.4,30.40,NNE,26,0.0,0.0,88,0.00,CLR,,0.00,WeatherDisplay:10.37,2013-12-14 11:07:00,
2013-12-14 06:12:00,18.4,15.4,30.40,NNE,26,1.6,3.5,88,0.00,CLR,,0.00,WeatherDisplay:10.37,2013-12-14 11:12:00,
2013-12-14 06:17:00,18.4,15.4,30.40,NNE,26,0.0,0.0,88,0.00,CLR,,0.00,WeatherDisplay:10.37,2013-12-14 11:17:00,
2013-12-14 06:22:00,18.4,15.2,30.40,NNE,26,0.4,3.5,87,0.00,CLR,,0.00,WeatherDisplay:10.37,2013-12-14 11:22:00,
2013-12-14 06:27:00,18.4,15.2,30.40,NE,42,2.0,5.0,87,0.00,CLR,,0.00,WeatherDisplay:10.37,2013-12-14 11:27:00,
2013-12-14 06:32:00,18.3,15.1,30.41,NE,50,1.2,3.5,87,0.00,CLR,,0.00,WeatherDisplay:10.37,2013-12-14 11:32:00,
2013-12-14 06:37:00,18.3,15.1,30.41,NNE,28,1.6,3.5,87,0.00,CLR,,0.00,WeatherDisplay:10.37,2013-12-14 11:37:00,
2013-12-14 06:42:00,18.3,15.3,30.41,NE,34,1.3,3.5,88,0.00,CLR,,0.00,WeatherDisplay:10.37,2013-12-14 11:42:00,
2013-12-14 06:47:00,18.1,15.1,30.41,NE,34,0.5,2.3,88,0.00,CLR,,0.00,WeatherDisplay:10.37,2013-12-14 11:47:00,
2013-12-14 06:52:00,18.1,15.1,30.41,NE,34,0.5,3.5,88,0.00,CLR,,0.00,WeatherDisplay:10.37,2013-12-14 11:52:00,
2013-12-14 06:57:00,18.0,15.0,30.41,NE,34,0.9,2.3,88,0.00,CLR,,0.00,WeatherDisplay:10.37,2013-12-14 11:57:00,
2013-12-14 07:02:00,18.0,15.3,30.41,NE,34,1.1,1.1,89,0.00,CLR,,0.00,WeatherDisplay:10.37,2013-12-14 12:02:00,
2013-12-14 07:07:00,17.8,15.1,30.42,NE,35,0.3,3.5,89,0.00,CLR,,0.00,WeatherDisplay:10.37,2013-12-14 12:07:00,
2013-12-14 07:12:00,17.8,15.1,30.42,NE,35,0.6,0.0,89,0.00,CLR,,0.00,WeatherDisplay:10.37,2013-12-14 12:12:00,
2013-12-14 07:17:00,17.8,15.1,30.42,NE,34,1.4,2.3,89,0.00,CLR,,0.00,WeatherDisplay:10.37,2013-12-14 12:17:00,
2013-12-14 07:22:00,17.7,14.8,30.42,NE,42,2.3,3.5,88,0.00,CLR,,0.00,WeatherDisplay:10.37,2013-12-14 12:22:00,
2013-12-14 07:27:00,17.7,14.8,30.42,NNE,32,0.4,3.5,88,0.00,CLR,,0.00,WeatherDisplay:10.37,2013-12-14 12:27:00,
2013-12-14 07:32:00,17.7,15.0,30.42,NNE,32,1.9,3.5,89,0.00,CLR,,0.00,WeatherDisplay:10.37,2013-12-14 12:32:00,
2013-12-14 07:37:00,17.5,14.8,30.42,NNE,32,1.4,2.3,89,0.00,CLR,,0.00,WeatherDisplay:10.37,2013-12-14 12:37:00,
2013-12-14 07:42:00,17.5,14.8,30.42,NNE,32,1.1,2.0,89,0.00,CLR,,0.00,WeatherDisplay:10.37,2013-12-14 12:42:00,
2013-12-14 07:47:00,17.3,14.6,30.43,NNE,32,0.0,1.1,89,0.00,CLR,,0.00,WeatherDisplay:10.37,2013-12-14 12:47:00,
2013-12-14 07:52:00,17.3,14.6,30.43,NE,34,0.6,2.3,89,0.00,CLR,,0.00,WeatherDisplay:10.37,2013-12-14 12:52:00,
2013-12-14 07:57:00,17.3,14.6,30.43,NE,34,1.8,3.5,89,0.00,CLR,,0.00,WeatherDisplay:10.37,2013-12-14 12:57:00,
2013-12-14 08:02:00,17.3,14.6,30.43,NNE,32,2.5,3.5,89,0.00,CLR,,0.00,WeatherDisplay:10.37,2013-12-14 13:02:00,
2013-12-14 08:07:00,17.3,14.6,30.43,NNE,28,3.5,4.6,89,0.00,CLR,,0.00,WeatherDisplay:10.37,2013-12-14 13:07:00,
2013-12-14 08:12:00,17.3,14.6,30.43,NNE,28,0.8,3.0,89,0.00,CLR,,0.00,WeatherDisplay:10.37,2013-12-14 13:12:00,
2013-12-14 08:17:00,17.3,14.6,30.43,NNE,28,0.6,2.0,89,0.00,CLR,,0.00,WeatherDisplay:10.37,2013-12-14 13:17:00,
2013-12-14 08:22:00,17.5,14.8,30.44,NNE,28,1.2,2.3,89,0.00,CLR,,0.00,WeatherDisplay:10.37,2013-12-14 13:22:00,
2013-12-14 08:27:00,17.5,14.6,30.44,NNE,28,0.1,0.0,88,0.00,CLR,,0.00,WeatherDisplay:10.37,2013-12-14 13:27:00,
2013-12-14 08:32:00,17.5,14.6,30.44,NNE,28,1.4,2.3,88,0.00,CLR,,0.00,WeatherDisplay:10.37,2013-12-14 13:32:00,
2013-12-14 08:37:00,17.7,14.8,30.45,NNE,28,1.7,3.5,88,0.00,CLR,,0.00,WeatherDisplay:10.37,2013-12-14 13:37:00,
2013-12-14 08:42:00,17.8,14.8,30.45,NNE,28,0.5,0.0,88,0.00,CLR,,0.00,WeatherDisplay:10.37,2013-12-14 13:42:00,
2013-12-14 08:47:00,18.0,15.0,30.45,NNE,28,0.2,0.0,88,0.00,CLR,,0.00,WeatherDisplay:10.37,2013-12-14 13:47:00,
2013-12-14 08:52:00,18.0,15.0,30.45,NNE,28,0.0,1.1,88,0.00,CLR,,0.00,WeatherDisplay:10.37,2013-12-14 13:52:00,
2013-12-14 08:57:00,18.0,14.8,30.45,NNE,28,1.5,2.3,87,0.00,CLR,,0.00,WeatherDisplay:10.37,2013-12-14 13:57:00,
2013-12-14 09:02:00,18.0,14.8,30.45,NNE,28,2.6,3.5,87,0.00,CLR,,0.00,WeatherDisplay:10.37,2013-12-14 14:02:00,
2013-12-14 09:07:00,18.0,14.8,30.45,NNE,28,0.3,3.5,87,0.00,CLR,,0.00,WeatherDisplay:10.37,2013-12-14 14:07:00,
2013-12-14 09:12:00,18.1,14.9,30.45,NNE,28,0.9,2.3,87,0.00,CLR,,0.00,WeatherDisplay:10.37,2013-12-14 14:12:00,
2013-12-14 09:17:00,18.1,14.9,30.46,NNE,28,1.7,3.5,87,0.00,CLR,,0.00,WeatherDisplay:10.37,2013-12-14 14:17:00,
2013-12-14 09:22:00,18.1,14.9,30.46,NNE,28,1.5,3.5,87,0.00,CLR,,0.00,WeatherDisplay:10.37,2013-12-14 14:22:00,
2013-12-14 09:27:00,18.3,15.1,30.46,NNE,28,0.0,1.1,87,0.00,CLR,,0.00,WeatherDisplay:10.37,2013-12-14 14:27:00,
2013-12-14 09:32:00,18.4,15.2,30.46,NNE,28,1.6,3.5,87,0.00,CLR,,0.00,WeatherDisplay:10.37,2013-12-14 14:32:00,
2013-12-14 09:37:00,18.6,15.4,30.47,NNE,28,0.1,2.3,87,0.00,CLR,,0.00,WeatherDisplay:10.37,2013-12-14 14:37:00,
2013-12-14 09:42:00,18.8,15.6,30.47,NNE,29,2.2,3.5,87,0.00,CLR,,0.00,WeatherDisplay:10.37,2013-12-14 14:42:00,
2013-12-14 09:47:00,18.9,15.7,30.47,NE,44,2.3,3.5,87,0.00,CLR,,0.00,WeatherDisplay:10.37,2013-12-14 14:47:00,
2013-12-14 09:52:00,19.1,15.9,30.46,NE,44,1.7,3.5,87,0.00,CLR,,0.00,WeatherDisplay:10.37,2013-12-14 14:52:00,
2013-12-14 09:57:00,19.1,15.6,30.46,NNE,31,2.1,3.5,86,0.00,CLR,,0.00,WeatherDisplay:10.37,2013-12-14 14:57:00,
2013-12-14 10:02:00,19.1,15.6,30.46,ENE,65,3.1,4.0,86,0.00,CLR,,0.00,WeatherDisplay:10.37,2013-12-14 15:02:00,
2013-12-14 10:07:00,19.2,15.7,30.46,NNE,32,1.6,3.5,86,0.00,CLR,,0.00,WeatherDisplay:10.37,2013-12-14 15:07:00,
2013-12-14 10:12:00,19.4,15.9,30.46,NNE,32,0.4,1.1,86,0.00,CLR,,0.00,WeatherDisplay:10.37,2013-12-14 15:12:00,
2013-12-14 10:17:00,19.5,16.0,30.46,NE,35,0.3,2.3,86,0.00,CLR,,0.00,WeatherDisplay:10.37,2013-12-14 15:17:00,
2013-12-14 10:22:00,19.2,15.2,30.46,ESE,118,1.9,3.5,84,0.00,CLR,,0.00,WeatherDisplay:10.37,2013-12-14 15:22:00,
2013-12-14 10:27:00,19.2,15.2,30.47,ESE,117,0.3,1.1,84,0.00,CLR,,0.00,WeatherDisplay:10.37,2013-12-14 15:27:00,
2013-12-14 10:32:00,19.1,14.8,30.47,SE,140,1.2,2.3,83,0.00,CLR,,0.00,WeatherDisplay:10.37,2013-12-14 15:32:00,
2013-12-14 10:37:00,18.9,14.3,30.46,SE,145,0.3,0.0,82,0.00,CLR,,0.00,WeatherDisplay:10.37,2013-12-14 15:37:00,
2013-12-14 10:42:00,18.9,14.3,30.47,SE,145,0.1,1.1,82,0.00,CLR,,0.00,WeatherDisplay:10.37,2013-12-14 15:42:00,
2013-12-14 10:47:00,18.8,13.9,30.47,SE,132,0.1,2.3,81,0.00,CLR,,0.00,WeatherDisplay:10.37,2013-12-14 15:47:00,
2013-12-14 10:52:00,18.9,14.0,30.47,SE,130,1.9,3.5,81,0.00,CLR,,0.00,WeatherDisplay:10.37,2013-12-14 15:52:00,
2013-12-14 10:57:00,18.9,14.0,30.47,SE,128,1.1,3.5,81,0.00,CLR,,0.00,WeatherDisplay:10.37,2013-12-14 15:57:00,
2013-12-14 11:02:00,18.9,14.3,30.47,SE,130,1.1,2.3,82,0.00,CLR,,0.00,WeatherDisplay:10.37,2013-12-14 16:02:00,
2013-12-14 11:07:00,18.8,13.9,30.46,SE,146,2.7,4.6,81,0.00,CLR,,0.00,WeatherDisplay:10.37,2013-12-14 16:07:00,
2013-12-14 11:12:00,18.3,13.4,30.45,SSE,161,1.5,6.9,81,0.00,CLR,,0.00,WeatherDisplay:10.37,2013-12-14 16:12:00,
2013-12-14 11:17:00,18.1,13.5,30.45,SSE,163,1.9,5.8,82,0.00,CLR,,0.00,WeatherDisplay:10.37,2013-12-14 16:17:00,
2013-12-14 11:22:00,17.8,13.5,30.45,SE,135,0.6,6.9,83,0.00,CLR,,0.00,WeatherDisplay:10.37,2013-12-14 16:22:00,
2013-12-14 11:27:00,17.7,13.7,30.45,SE,142,1.3,3.5,84,0.00,CLR,,0.00,WeatherDisplay:10.37,2013-12-14 16:27:00,
2013-12-14 11:33:00,17.5,13.8,30.45,SSW,201,0.4,1.1,85,0.00,CLR,,0.00,WeatherDisplay:10.37,2013-12-14 16:33:00,
2013-12-14 11:38:00,17.5,14.0,30.44,ESE,113,0.2,1.1,86,0.00,CLR,,0.00,WeatherDisplay:10.37,2013-12-14 16:38:00,
2013-12-14 11:43:00,17.8,14.3,30.44,SSW,194,0.0,0.0,86,0.00,CLR,,0.00,WeatherDisplay:10.37,2013-12-14 16:43:00,
2013-12-14 11:48:00,18.0,14.0,30.43,East,84,0.2,2.0,84,0.00,CLR,,0.00,WeatherDisplay:10.37,2013-12-14 16:48:00,
2013-12-14 11:53:00,18.1,13.8,30.43,ENE,63,2.2,3.5,83,0.00,CLR,,0.00,WeatherDisplay:10.37,2013-12-14 16:53:00,
2013-12-14 11:58:00,18.3,13.7,30.43,ESE,115,1.7,5.8,82,0.00,CLR,,0.00,WeatherDisplay:10.37,2013-12-14 16:58:00,
2013-12-14 12:03:00,18.1,13.3,30.43,SE,138,2.3,3.5,81,0.00,CLR,,0.00,WeatherDisplay:10.37,2013-12-14 17:03:00,
2013-12-14 12:08:00,18.0,13.2,30.42,South,179,1.6,3.5,81,0.00,CLR,,0.00,WeatherDisplay:10.37,2013-12-14 17:08:00,
2013-12-14 12:13:00,18.3,13.2,30.42,NE,52,2.8,3.5,80,0.00,CLR,,0.00,WeatherDisplay:10.37,2013-12-14 17:13:00,
2013-12-14 12:18:00,18.0,12.6,30.42,ENE,69,1.9,5.8,79,0.00,CLR,,0.00,WeatherDisplay:10.37,2013-12-14 17:18:00,
2013-12-14 12:23:00,18.0,12.9,30.42,SE,138,0.9,2.3,80,0.00,CLR,,0.00,WeatherDisplay:10.37,2013-12-14 17:23:00,
2013-12-14 12:28:00,18.1,13.3,30.42,SE,138,1.1,3.5,81,0.00,CLR,,0.00,WeatherDisplay:10.37,2013-12-14 17:28:00,
2013-12-14 12:33:00,18.1,13.0,30.42,ESE,109,1.4,3.5,80,0.00,CLR,,0.00,WeatherDisplay:10.37,2013-12-14 17:33:00,
2013-12-14 12:38:00,18.0,12.9,30.41,NE,51,1.0,3.5,80,0.00,CLR,,0.00,WeatherDisplay:10.37,2013-12-14 17:38:00,
2013-12-14 12:43:00,17.7,12.6,30.41,ENE,69,2.7,4.6,80,0.00,CLR,,0.00,WeatherDisplay:10.37,2013-12-14 17:43:00,
2013-12-14 12:48:00,17.7,12.6,30.41,East,92,0.6,2.3,80,0.00,CLR,,0.00,WeatherDisplay:10.37,2013-12-14 17:48:00,
2013-12-14 12:53:00,17.7,12.6,30.41,East,84,0.0,0.0,80,0.00,CLR,,0.00,WeatherDisplay:10.37,2013-12-14 17:53:00,
2013-12-14 12:58:00,17.7,12.6,30.41,East,97,0.0,0.0,80,0.00,CLR,,0.00,WeatherDisplay:10.37,2013-12-14 17:58:00,
2013-12-14 13:03:00,17.7,12.6,30.40,ENE,60,1.1,2.3,80,0.00,CLR,,0.00,WeatherDisplay:10.37,2013-12-14 18:03:00,
2013-12-14 13:08:00,17.5,12.1,30.40,SE,135,2.5,3.5,79,0.00,CLR,,0.00,WeatherDisplay:10.37,2013-12-14 18:08:00,
2013-12-14 13:13:00,17.3,11.9,30.40,SSE,153,1.1,2.3,79,0.00,CLR,,0.00,WeatherDisplay:10.37,2013-12-14 18:13:00,
2013-12-14 13:18:00,17.2,11.8,30.39,East,79,1.1,3.5,79,0.00,CLR,,0.00,WeatherDisplay:10.37,2013-12-14 18:18:00,
2013-12-14 13:23:00,17.3,11.9,30.39,NE,45,0.0,0.0,79,0.00,CLR,,0.00,WeatherDisplay:10.37,2013-12-14 18:23:00,
2013-12-14 13:28:00,17.3,11.9,30.38,NE,56,1.1,3.5,79,0.00,CLR,,0.00,WeatherDisplay:10.37,2013-12-14 18:28:00,
2013-12-14 13:33:00,17.2,11.8,30.38,ENE,68,0.2,1.1,79,0.00,CLR,,0.00,WeatherDisplay:10.37,2013-12-14 18:33:00,
2013-12-14 13:38:00,17.2,11.8,30.38,ESE,121,2.5,5.0,79,0.00,CLR,,0.00,WeatherDisplay:10.37,2013-12-14 18:38:00,
2013-12-14 13:43:00,16.9,11.5,30.37,ESE,107,2.3,3.5,79,0.00,CLR,,0.00,WeatherDisplay:10.37,2013-12-14 18:43:00,
2013-12-14 13:48:00,16.9,11.5,30.37,ESE,107,2.2,5.8,79,0.00,CLR,,0.00,WeatherDisplay:10.37,2013-12-14 18:48:00,
2013-12-14 13:53:00,16.7,11.3,30.37,ESE,106,1.2,4.0,79,0.00,CLR,,0.00,WeatherDisplay:10.37,2013-12-14 18:53:00,
2013-12-14 13:58:00,16.7,11.3,30.37,ESE,119,0.0,2.0,79,0.00,CLR,,0.00,WeatherDisplay:10.37,2013-12-14 18:58:00,
2013-12-14 14:03:00,16.5,11.1,30.37,SE,131,1.1,2.3,79,0.00,CLR,,0.00,WeatherDisplay:10.37,2013-12-14 19:03:00,
2013-12-14 14:08:00,16.4,11.3,30.36,SE,132,2.2,4.6,80,0.00,CLR,,0.00,WeatherDisplay:10.37,2013-12-14 19:08:00,
2013-12-14 14:13:00,16.4,11.3,30.36,SSE,162,3.1,4.0,80,0.00,CLR,,0.00,WeatherDisplay:10.37,2013-12-14 19:13:00,
2013-12-14 14:18:00,16.4,11.3,30.36,East,95,0.9,2.3,80,0.00,CLR,,0.00,WeatherDisplay:10.37,2013-12-14 19:18:00,
2013-12-14 14:23:00,16.4,11.3,30.36,ESE,109,1.3,1.3,80,0.00,CLR,,0.00,WeatherDisplay:10.37,2013-12-14 19:23:00,
2013-12-14 14:28:00,16.4,11.3,30.36,ENE,71,0.2,3.5,80,0.00,CLR,,0.00,WeatherDisplay:10.37,2013-12-14 19:28:00,
2013-12-14 14:33:00,16.2,10.8,30.37,ESE,120,0.1,2.3,79,0.00,CLR,,0.00,WeatherDisplay:10.37,2013-12-14 19:33:00,
2013-12-14 14:38:00,16.2,10.8,30.36,East,89,1.9,3.5,79,0.00,CLR,,0.00,WeatherDisplay:10.37,2013-12-14 19:38:00,
2013-12-14 14:43:00,16.2,11.1,30.36,East,90,3.5,8.1,80,0.00,CLR,,0.00,WeatherDisplay:10.37,2013-12-14 19:43:00,
2013-12-14 14:52:00,16.1,11.6,30.36,NE,36,0.0,6.9,82,0.00,CLR,,0.00,WeatherDisplay:10.37,2013-12-14 19:52:00,
2013-12-14 14:57:00,15.9,11.4,30.36,East,90,1.7,3.5,82,0.00,CLR,,0.00,WeatherDisplay:10.37,2013-12-14 19:57:00,
2013-12-14 15:02:00,15.6,11.1,30.35,SE,135,4.1,10.4,82,0.00,CLR,,0.00,WeatherDisplay:10.37,2013-12-14 20:02:00,
2013-12-14 15:07:00,15.4,11.2,30.35,East,92,4.1,9.2,83,0.00,CLR,,0.00,WeatherDisplay:10.37,2013-12-14 20:07:00,
2013-12-14 15:12:00,15.2,11.2,30.35,ESE,111,2.8,6.0,84,0.00,CLR,,0.00,WeatherDisplay:10.37,2013-12-14 20:12:00,
2013-12-14 15:17:00,15.2,11.2,30.34,East,100,4.0,10.4,84,0.00,CLR,,0.00,WeatherDisplay:10.37,2013-12-14 20:17:00,
2013-12-14 15:22:00,15.2,11.2,30.33,ENE,59,3.6,6.0,84,0.00,CLR,,0.00,WeatherDisplay:10.37,2013-12-14 20:22:00,
2013-12-14 15:27:00,15.1,11.1,30.33,East,90,1.8,4.6,84,0.00,CLR,,0.00,WeatherDisplay:10.37,2013-12-14 20:27:00,
2013-12-14 15:32:00,15.1,11.4,30.33,NE,51,3.2,5.8,85,0.00,CLR,,0.00,WeatherDisplay:10.37,2013-12-14 20:32:00,
2013-12-14 15:37:00,14.9,11.2,30.33,ENE,70,4.7,11.5,85,0.00,CLR,,0.00,WeatherDisplay:10.37,2013-12-14 20:37:00,
2013-12-14 15:42:00,14.9,11.2,30.33,NE,55,2.6,5.8,85,0.00,CLR,,0.00,WeatherDisplay:10.37,2013-12-14 20:42:00,
2013-12-14 15:47:00,14.9,11.2,30.33,ESE,107,2.7,5.8,85,0.00,CLR,,0.00,WeatherDisplay:10.37,2013-12-14 20:47:00,
2013-12-14 15:52:00,14.8,11.1,30.33,SE,136,5.7,9.2,85,0.00,CLR,,0.00,WeatherDisplay:10.37,2013-12-14 20:52:00,
2013-12-14 15:57:00,14.6,10.6,30.33,ESE,121,1.4,4.6,84,0.00,CLR,,0.00,WeatherDisplay:10.37,2013-12-14 20:57:00,
2013-12-14 16:02:00,14.4,10.4,30.33,ESE,106,1.3,3.5,84,0.00,CLR,,0.00,WeatherDisplay:10.37,2013-12-14 21:02:00,
2013-12-14 16:07:00,14.4,10.7,30.33,North,355,1.6,4.6,85,0.00,CLR,,0.00,WeatherDisplay:10.37,2013-12-14 21:07:00,
2013-12-14 16:12:00,14.4,10.7,30.33,NNE,15,5.9,11.0,85,0.00,CLR,,0.00,WeatherDisplay:10.37,2013-12-14 21:12:00,
2013-12-14 16:17:00,14.3,10.9,30.33,East,87,3.1,6.9,86,0.00,CLR,,0.00,WeatherDisplay:10.37,2013-12-14 21:17:00,
2013-12-14 16:22:00,14.3,10.9,30.33,SE,128,2.8,6.9,86,0.00,CLR,,0.00,WeatherDisplay:10.37,2013-12-14 21:22:00,
2013-12-14 16:27:00,14.3,10.6,30.33,East,85,2.5,4.6,85,0.00,CLR,,0.00,WeatherDisplay:10.37,2013-12-14 21:27:00,
2013-12-14 16:32:00,14.3,10.6,30.33,North,5,3.7,5.8,85,0.00,CLR,,0.00,WeatherDisplay:10.37,2013-12-14 21:32:00,
2013-12-14 16:37:00,14.3,10.4,30.32,ESE,110,2.8,6.9,84,0.00,CLR,,0.00,WeatherDisplay:10.37,2013-12-14 21:37:00,
2013-12-14 16:42:00,14.4,10.4,30.32,NE,50,3.1,4.6,84,0.00,CLR,,0.00,WeatherDisplay:10.37,2013-12-14 21:42:00,
2013-12-14 16:47:00,14.4,10.4,30.31,ESE,105,3.0,5.8,84,0.00,CLR,,0.00,WeatherDisplay:10.37,2013-12-14 21:47:00,
2013-12-14 16:52:00,14.3,10.6,30.30,ENE,63,1.8,6.9,85,0.00,CLR,,0.00,WeatherDisplay:10.37,2013-12-14 21:52:00,
2013-12-14 16:57:00,14.3,10.6,30.30,ESE,103,4.5,11.5,85,0.00,CLR,,0.00,WeatherDisplay:10.37,2013-12-14 21:57:00,
2013-12-14 17:02:00,14.3,10.6,30.29,NE,44,2.1,11.5,85,0.00,CLR,,0.00,WeatherDisplay:10.37,2013-12-14 22:02:00,
2013-12-14 17:07:00,14.3,10.9,30.28,East,83,1.6,5.8,86,0.00,CLR,,0.00,WeatherDisplay:10.37,2013-12-14 22:07:00,
2013-12-14 17:12:00,14.3,10.9,30.28,East,91,3.2,4.6,86,0.00,CLR,,0.00,WeatherDisplay:10.37,2013-12-14 22:12:00,
2013-12-14 17:17:00,14.3,10.9,30.28,ENE,71,4.8,6.9,86,0.00,CLR,,0.00,WeatherDisplay:10.37,2013-12-14 22:17:00,
2013-12-14 17:22:00,14.3,10.9,30.27,ENE,67,0.3,3.5,86,0.00,CLR,,0.00,WeatherDisplay:10.37,2013-12-14 22:22:00,
2013-12-14 17:27:00,14.3,10.9,30.27,ENE,78,3.3,9.2,86,0.00,CLR,,0.00,WeatherDisplay:10.37,2013-12-14 22:27:00,
2013-12-14 17:32:00,14.3,10.9,30.27,ENE,67,0.9,4.6,86,0.00,CLR,,0.00,WeatherDisplay:10.37,2013-12-14 22:32:00,
2013-12-14 17:37:00,14.3,10.9,30.27,ENE,69,2.4,6.9,86,0.00,CLR,,0.00,WeatherDisplay:10.37,2013-12-14 22:37:00,
2013-12-14 17:42:00,14.4,11.0,30.27,NE,50,2.5,4.0,86,0.00,CLR,,0.00,WeatherDisplay:10.37,2013-12-14 22:42:00,
2013-12-14 17:47:00,14.4,11.0,30.26,East,82,2.2,5.0,86,0.00,CLR,,0.00,WeatherDisplay:10.37,2013-12-14 22:47:00,
2013-12-14 17:52:00,14.6,11.2,30.26,NE,50,3.5,7.0,86,0.00,CLR,,0.00,WeatherDisplay:10.37,2013-12-14 22:52:00,
2013-12-14 17:58:00,14.6,11.2,30.26,ESE,117,3.1,6.0,86,0.00,CLR,,0.00,WeatherDisplay:10.37,2013-12-14 22:58:00,
2013-12-14 18:02:00,14.6,11.4,30.26,ESE,103,0.3,3.5,87,0.00,CLR,,0.00,WeatherDisplay:10.37,2013-12-14 23:02:00,
2013-12-14 18:08:00,14.8,11.6,30.25,ENE,78,2.1,4.6,87,0.00,CLR,,0.00,WeatherDisplay:10.37,2013-12-14 23:08:00,
2013-12-14 18:13:00,14.8,11.6,30.25,SE,130,5.4,9.2,87,0.00,CLR,,0.00,WeatherDisplay:10.37,2013-12-14 23:13:00,
2013-12-14 18:18:00,14.9,11.7,30.25,East,80,1.5,7.0,87,0.00,CLR,,0.00,WeatherDisplay:10.37,2013-12-14 23:18:00,
2013-12-14 18:23:00,14.9,11.7,30.26,ENE,63,2.1,5.8,87,0.00,CLR,,0.00,WeatherDisplay:10.37,2013-12-14 23:23:00,
2013-12-14 18:28:00,15.1,11.9,30.26,NE,51,4.7,5.8,87,0.00,CLR,,0.00,WeatherDisplay:10.37,2013-12-14 23:28:00,
2013-12-14 18:33:00,15.1,11.9,30.25,NE,40,1.6,2.3,87,0.00,CLR,,0.00,WeatherDisplay:10.37,2013-12-14 23:33:00,
2013-12-14 18:38:00,15.1,12.2,30.24,NE,34,4.2,7.0,88,0.00,CLR,,0.00,WeatherDisplay:10.37,2013-12-14 23:38:00,
2013-12-14 18:43:00,15.1,12.2,30.24,East,92,3.4,4.0,88,0.00,CLR,,0.00,WeatherDisplay:10.37,2013-12-14 23:43:00,
2013-12-14 18:48:00,15.1,12.2,30.24,East,85,2.3,4.6,88,0.00,CLR,,0.00,WeatherDisplay:10.37,2013-12-14 23:48:00,
2013-12-14 18:53:00,15.2,12.3,30.24,NE,42,3.9,6.0,88,0.00,CLR,,0.00,WeatherDisplay:10.37,2013-12-14 23:53:00,
2013-12-14 18:58:00,15.2,12.3,30.23,NE,56,5.8,5.8,88,0.00,CLR,,0.00,WeatherDisplay:10.37,2013-12-14 23:58:00,
2013-12-14 19:03:00,15.4,12.5,30.22,ENE,61,4.2,7.0,88,0.00,CLR,,0.00,WeatherDisplay:10.37,2013-12-15 00:03:00,
2013-12-14 19:08:00,15.4,12.7,30.22,East,86,3.1,6.9,89,0.00,CLR,,0.00,WeatherDisplay:10.37,2013-12-15 00:08:00,
2013-12-14 19:13:00,15.6,12.9,30.22,ENE,57,3.1,4.0,89,0.00,CLR,,0.00,WeatherDisplay:10.37,2013-12-15 00:13:00,
2013-12-14 19:18:00,15.6,12.9,30.21,SSW,207,2.9,10.0,89,0.00,CLR,,0.00,WeatherDisplay:10.37,2013-12-15 00:18:00,
2013-12-14 19:23:00,15.6,12.9,30.20,NE,52,1.9,10.4,89,0.00,CLR,,0.00,WeatherDisplay:10.37,2013-12-15 00:23:00,
2013-12-14 19:28:00,15.6,12.9,30.19,NE,39,3.0,5.0,89,0.00,CLR,,0.00,WeatherDisplay:10.37,2013-12-15 00:28:00,
2013-12-14 19:33:00,15.6,12.9,30.19,SE,124,3.5,5.8,89,0.00,CLR,,0.00,WeatherDisplay:10.37,2013-12-15 00:33:00,
2013-12-14 19:38:00,15.7,13.3,30.19,ESE,121,4.9,11.5,90,0.00,CLR,,0.00,WeatherDisplay:10.37,2013-12-15 00:38:00,
2013-12-14 19:43:00,15.7,13.3,30.19,ENE,57,4.0,5.8,90,0.00,CLR,,0.00,WeatherDisplay:10.37,2013-12-15 00:43:00,
2013-12-14 19:48:00,15.7,13.3,30.17,East,81,3.1,7.0,90,0.00,CLR,,0.00,WeatherDisplay:10.37,2013-12-15 00:48:00,
2013-12-14 19:53:00,15.9,13.7,30.17,NNE,18,3.9,4.6,91,0.00,CLR,,0.00,WeatherDisplay:10.37,2013-12-15 00:53:00,
2013-12-14 19:58:00,16.1,13.9,30.17,NE,42,3.2,11.5,91,0.00,CLR,,0.00,WeatherDisplay:10.37,2013-12-15 00:58:00,
2013-12-14 20:03:00,16.2,14.0,30.16,NE,40,7.7,10.4,91,0.00,CLR,,0.00,WeatherDisplay:10.37,2013-12-15 01:03:00,
2013-12-14 20:08:00,16.2,14.0,30.17,NNE,30,3.4,9.2,91,0.00,CLR,,0.00,WeatherDisplay:10.37,2013-12-15 01:08:00,
2013-12-14 20:13:00,16.4,14.2,30.17,NE,34,6.0,10.4,91,0.00,CLR,,0.00,WeatherDisplay:10.37,2013-12-15 01:13:00,
2013-12-14 20:18:00,16.5,14.6,30.16,NE,34,3.0,5.8,92,0.00,CLR,,0.00,WeatherDisplay:10.37,2013-12-15 01:18:00,
2013-12-14 20:23:00,16.5,14.6,30.15,NE,36,4.5,10.4,92,0.00,CLR,,0.00,WeatherDisplay:10.37,2013-12-15 01:23:00,
2013-12-14 20:28:00,16.7,14.8,30.14,ESE,115,8.2,11.5,92,0.00,CLR,,0.00,WeatherDisplay:10.37,2013-12-15 01:28:00,
2013-12-14 20:33:00,16.9,15.0,30.12,ENE,62,4.8,10.4,92,0.00,CLR,,0.00,WeatherDisplay:10.37,2013-12-15 01:33:00,
2013-12-14 20:38:00,17.0,15.1,30.11,ESE,103,5.7,11.5,92,0.00,CLR,,0.00,WeatherDisplay:10.37,2013-12-15 01:38:00,
2013-12-14 20:43:00,17.2,15.3,30.11,East,90,5.0,11.5,92,0.00,CLR,,0.00,WeatherDisplay:10.37,2013-12-15 01:43:00,
2013-12-14 20:48:00,17.3,15.4,30.11,NNE,13,4.2,5.8,92,0.00,CLR,,0.00,WeatherDisplay:10.37,2013-12-15 01:48:00,
2013-12-14 20:53:00,17.5,15.6,30.10,ESE,105,7.0,11.5,92,0.00,CLR,,0.00,WeatherDisplay:10.37,2013-12-15 01:53:00,
2013-12-14 20:58:00,17.7,16.0,30.09,ENE,57,5.8,5.8,93,0.00,CLR,,0.00,WeatherDisplay:10.37,2013-12-15 01:58:00,
2013-12-14 21:03:00,17.8,16.1,30.09,NNE,30,2.9,11.0,93,0.00,CLR,,0.00,WeatherDisplay:10.37,2013-12-15 02:03:00,
2013-12-14 21:08:00,17.8,16.1,30.09,NE,53,3.5,11.5,93,0.00,CLR,,0.00,WeatherDisplay:10.37,2013-12-15 02:08:00,
2013-12-14 21:13:00,18.0,16.3,30.09,ESE,119,5.9,10.4,93,0.00,CLR,,0.00,WeatherDisplay:10.37,2013-12-15 02:13:00,
2013-12-14 21:18:00,18.1,16.7,30.08,East,80,6.9,9.2,94,0.00,CLR,,0.00,WeatherDisplay:10.37,2013-12-15 02:18:00,
2013-12-14 21:23:00,18.1,16.7,30.06,NNE,22,2.9,15.0,94,0.00,CLR,,0.00,WeatherDisplay:10.37,2013-12-15 02:23:00,
2013-12-14 21:28:00,18.3,16.9,30.06,ENE,69,5.3,6.0,94,0.00,CLR,,0.00,WeatherDisplay:10.37,2013-12-15 02:28:00,
2013-12-14 21:33:00,18.6,17.2,30.06,NE,49,5.0,8.1,94,0.00,CLR,,0.00,WeatherDisplay:10.37,2013-12-15 02:33:00,
2013-12-14 21:38:00,18.8,17.4,30.06,NNE,32,5.2,12.0,94,0.00,CLR,,0.00,WeatherDisplay:10.37,2013-12-15 02:38:00,
2013-12-14 21:43:00,18.8,17.4,30.06,ENE,71,5.5,5.5,94,0.00,CLR,,0.00,WeatherDisplay:10.37,2013-12-15 02:43:00,
2013-12-14 21:48:00,19.1,17.7,30.06,ENE,66,3.6,15.0,94,0.00,CLR,,0.00,WeatherDisplay:10.37,2013-12-15 02:48:00,
2013-12-14 21:53:00,19.1,17.4,30.04,ENE,70,3.4,9.2,93,0.00,CLR,,0.00,WeatherDisplay:10.37,2013-12-15 02:53:00,
2013-12-14 21:58:00,19.4,17.7,30.04,ENE,76,4.9,5.8,93,0.00,CLR,,0.00,WeatherDisplay:10.37,2013-12-15 02:58:00,
2013-12-14 22:03:00,19.7,18.0,30.04,ENE,58,5.9,12.7,93,0.00,CLR,,0.00,WeatherDisplay:10.37,2013-12-15 03:03:00,
2013-12-14 22:08:00,19.7,18.0,30.04,SE,134,4.0,10.4,93,0.00,CLR,,0.00,WeatherDisplay:10.37,2013-12-15 03:08:00,
2013-12-14 22:13:00,19.7,17.8,30.03,East,82,4.1,6.0,92,0.00,CLR,,0.00,WeatherDisplay:10.37,2013-12-15 03:13:00,
2013-12-14 22:18:00,19.7,17.8,30.02,ENE,74,3.5,9.2,92,0.00,CLR,,0.00,WeatherDisplay:10.37,2013-12-15 03:18:00,
2013-12-14 22:23:00,19.9,18.0,30.01,East,81,4.2,10.4,92,0.00,CLR,,0.00,WeatherDisplay:10.37,2013-12-15 03:23:00,
2013-12-14 22:28:00,19.9,18.0,30.00,ENE,65,4.6,9.2,92,0.00,CLR,,0.00,WeatherDisplay:10.37,2013-12-15 03:28:00,
2013-12-14 22:33:00,20.0,18.1,30.00,East,86,6.4,10.4,92,0.00,CLR,,0.00,WeatherDisplay:10.37,2013-12-15 03:33:00,
2013-12-14 22:38:00,20.0,18.1,30.00,ENE,66,4.7,13.8,92,0.00,CLR,,0.00,WeatherDisplay:10.37,2013-12-15 03:38:00,
2013-12-14 22:43:00,20.2,18.2,30.00,East,88,5.6,16.1,92,0.00,CLR,,0.00,WeatherDisplay:10.37,2013-12-15 03:43:00,
2013-12-14 22:48:00,20.3,18.6,29.99,East,92,4.0,4.0,93,0.00,CLR,,0.00,WeatherDisplay:10.37,2013-12-15 03:48:00,
2013-12-14 22:53:00,20.3,18.6,29.98,NE,55,2.5,3.5,93,0.00,CLR,,0.00,WeatherDisplay:10.37,2013-12-15 03:53:00,
2013-12-14 22:58:00,20.3,18.6,29.97,ENE,74,1.3,6.0,93,0.00,CLR,,0.00,WeatherDisplay:10.37,2013-12-15 03:58:00,
2013-12-14 23:03:00,20.5,18.8,29.97,NW,321,2.1,3.5,93,0.00,CLR,,0.00,WeatherDisplay:10.37,2013-12-15 04:03:00,
2013-12-14 23:08:00,20.5,18.8,29.96,ENE,71,2.2,5.8,93,0.00,CLR,,0.00,WeatherDisplay:10.37,2013-12-15 04:08:00,
2013-12-14 23:13:00,20.5,18.8,29.94,East,97,2.2,9.2,93,0.00,CLR,,0.00,WeatherDisplay:10.37,2013-12-15 04:13:00,
2013-12-14 23:18:00,20.5,18.8,29.94,ESE,110,1.9,7.0,93,0.00,CLR,,0.00,WeatherDisplay:10.37,2013-12-15 04:18:00,
2013-12-14 23:23:00,20.5,18.8,29.93,East,90,1.3,10.4,93,0.00,CLR,,0.00,WeatherDisplay:10.37,2013-12-15 04:23:00,
2013-12-14 23:28:00,20.6,18.9,29.92,SE,145,7.0,15.0,93,0.00,CLR,,0.00,WeatherDisplay:10.37,2013-12-15 04:28:00,
2013-12-14 23:33:00,20.8,19.1,29.91,ESE,105,1.6,9.2,93,0.00,CLR,,0.00,WeatherDisplay:10.37,2013-12-15 04:33:00,
2013-12-14 23:38:00,20.8,19.1,29.90,ENE,74,4.3,11.5,93,0.00,CLR,,0.00,WeatherDisplay:10.37,2013-12-15 04:38:00,
2013-12-14 23:43:00,21.0,19.5,29.89,East,91,4.7,4.7,94,0.00,CLR,,0.00,WeatherDisplay:10.37,2013-12-15 04:43:00,
2013-12-14 23:48:00,21.1,19.6,29.89,ESE,102,5.8,13.8,94,0.00,CLR,,0.00,WeatherDisplay:10.37,2013-12-15 04:48:00,
2013-12-14 23:53:00,21.4,19.7,29.88,ENE,67,1.0,10.4,93,0.00,CLR,,0.00,WeatherDisplay:10.37,2013-12-15 04:53:00,
2013-12-14 23:58:00,21.6,19.9,29.87,East,85,4.6,12.0,93,0.00,CLR,,0.00,WeatherDisplay:10.37,2013-12-15 04:58:00,